Time;durP1;ratioP1;P1;durP2;ratioP2;P2;SDS_P1;SDS_P2;PMS_P1;PMS_P2;Temp;Humidity;BMP_temperature;BMP_pressure;BME280_temperature;BME280_humidity;BME280_pressure;Samples;Min_cycle;Max_cycle;Signal;HPM_P1;HPM_P2
2022/08/27 00:00:43;;;;;;;0.80;0.80;;;27.90;78.10;;;;;;4938183;29;20447;-84
2022/08/27 00:03:12;;;;;;;0.90;0.80;;;27.90;78.10;;;;;;4938043;29;20475;-84
2022/08/27 00:05:40;;;;;;;0.97;0.87;;;27.90;78.00;;;;;;4938128;29;20483;-84
2022/08/27 00:08:09;;;;;;;0.93;0.83;;;27.90;78.00;;;;;;4937853;29;20475;-84
2022/08/27 00:10:37;;;;;;;0.90;0.90;;;27.90;77.90;;;;;;4937961;29;20542;-84
2022/08/27 00:13:04;;;;;;;1.10;1.00;;;27.90;78.00;;;;;;4937934;29;20915;-84
2022/08/27 00:15:32;;;;;;;0.93;0.83;;;27.90;78.00;;;;;;4937665;29;20542;-84
2022/08/27 00:17:59;;;;;;;1.20;0.90;;;27.90;78.00;;;;;;4938058;29;20451;-84
2022/08/27 00:20:27;;;;;;;1.00;0.90;;;27.90;78.80;;;;;;4937864;29;20550;-85
2022/08/27 00:22:54;;;;;;;1.20;1.10;;;27.90;78.00;;;;;;4937659;29;20447;-85
2022/08/27 00:25:22;;;;;;;1.00;1.00;;;27.90;78.00;;;;;;4937532;29;20469;-84
2022/08/27 00:27:49;;;;;;;1.47;1.27;;;27.90;78.00;;;;;;4937782;29;20451;-88
2022/08/27 00:30:18;;;;;;;0.90;0.83;;;27.90;78.00;;;;;;4937730;29;20444;-88
2022/08/27 00:32:45;;;;;;;0.87;0.80;;;27.90;77.90;;;;;;4937608;29;20542;-85
2022/08/27 00:35:14;;;;;;;1.00;0.90;;;27.90;78.00;;;;;;4937278;29;20570;-84
2022/08/27 00:37:44;;;;;;;1.07;0.80;;;27.90;78.00;;;;;;4937376;29;20443;-84
2022/08/27 00:40:21;;;;;;;1.30;0.90;;;28.00;78.00;;;;;;4937330;29;20451;-84
2022/08/27 00:42:49;;;;;;;0.97;0.87;;;27.90;78.00;;;;;;4937555;29;20459;-88
2022/08/27 00:45:18;;;;;;;1.10;0.90;;;27.90;78.00;;;;;;4937282;29;20451;-87
2022/08/27 00:47:48;;;;;;;1.10;1.00;;;27.90;78.00;;;;;;4936908;29;20776;-87
2022/08/27 00:50:18;;;;;;;1.00;0.90;;;27.90;78.00;;;;;;4937323;29;20998;-83
2022/08/27 00:52:51;;;;;;;1.30;1.20;;;27.90;78.00;;;;;;4937338;29;20454;-86
2022/08/27 00:55:22;;;;;;;0.80;0.80;;;27.90;78.10;;;;;;4937183;29;20570;-84
2022/08/27 00:57:56;;;;;;;1.00;0.90;;;27.90;78.10;;;;;;4937236;29;21002;-85
2022/08/27 01:00:23;;;;;;;1.10;0.90;;;27.90;78.10;;;;;;4937317;29;20996;-84
2022/08/27 01:02:50;;;;;;;0.97;0.87;;;27.90;78.10;;;;;;4936981;29;20957;-89
2022/08/27 01:05:20;;;;;;;1.10;1.00;;;27.90;78.10;;;;;;4936900;29;20874;-84
2022/08/27 01:07:51;;;;;;;0.90;0.80;;;27.90;78.10;;;;;;4937025;29;20490;-88
2022/08/27 01:10:21;;;;;;;0.80;0.80;;;27.90;78.00;;;;;;4936671;29;20459;-84
2022/08/27 01:12:51;;;;;;;0.93;0.83;;;27.90;78.00;;;;;;4936771;29;20449;-84
2022/08/27 01:15:19;;;;;;;1.30;1.00;;;27.90;78.00;;;;;;4936843;29;20447;-86
2022/08/27 01:17:46;;;;;;;1.00;0.90;;;27.90;78.10;;;;;;4936724;29;20455;-87
2022/08/27 01:20:18;;;;;;;1.10;1.00;;;27.90;78.10;;;;;;4936852;29;20794;-84
2022/08/27 01:22:55;;;;;;;1.20;1.10;;;27.90;78.10;;;;;;4936901;29;20941;-88
2022/08/27 01:25:25;;;;;;;1.37;0.90;;;27.90;78.10;;;;;;4936885;29;20467;-86
2022/08/27 01:27:56;;;;;;;1.20;1.00;;;27.90;78.10;;;;;;4936478;29;20445;-84
2022/08/27 01:30:23;;;;;;;3.63;1.00;;;27.90;78.10;;;;;;4936127;29;20526;-83
2022/08/27 01:32:50;;;;;;;0.80;0.80;;;27.90;78.10;;;;;;4936568;29;20997;-84
2022/08/27 01:35:18;;;;;;;1.03;0.93;;;27.90;78.10;;;;;;4936413;29;20566;-87
2022/08/27 01:37:49;;;;;;;1.10;1.00;;;27.90;78.00;;;;;;4936617;29;20462;-87
2022/08/27 01:40:18;;;;;;;1.20;0.80;;;27.90;77.90;;;;;;4936504;29;20439;-87
2022/08/27 01:42:48;;;;;;;0.80;0.80;;;27.90;78.00;;;;;;4936395;29;20451;-86
2022/08/27 01:45:19;;;;;;;0.80;0.80;;;27.90;78.00;;;;;;4936227;29;20502;-84
2022/08/27 01:47:46;;;;;;;1.20;1.10;;;27.90;78.00;;;;;;4935938;29;20497;-86
2022/08/27 01:50:17;;;;;;;1.10;1.00;;;27.90;78.00;;;;;;4936831;29;20506;-84
2022/08/27 01:52:44;;;;;;;1.20;1.10;;;27.90;77.90;;;;;;4936345;29;20447;-84
2022/08/27 01:55:14;;;;;;;1.00;0.90;;;27.80;77.80;;;;;;4936039;29;20448;-84
2022/08/27 01:57:42;;;;;;;0.80;0.80;;;27.90;77.90;;;;;;4936338;29;21039;-85
2022/08/27 02:00:14;;;;;;;1.47;0.80;;;27.90;77.90;;;;;;4935918;29;20536;-85
2022/08/27 02:02:43;;;;;;;0.87;0.87;;;27.90;77.90;;;;;;4936233;29;20957;-84
2022/08/27 02:05:10;;;;;;;1.43;0.80;;;27.90;77.90;;;;;;4935951;29;20939;-84
2022/08/27 02:07:37;;;;;;;1.10;1.00;;;27.90;77.90;;;;;;4936140;29;20565;-88
2022/08/27 02:10:05;;;;;;;1.20;1.00;;;27.80;77.80;;;;;;4936224;29;20449;-84
2022/08/27 02:12:32;;;;;;;0.93;0.87;;;27.80;77.80;;;;;;4936137;29;20473;-88
2022/08/27 02:14:59;;;;;;;1.73;0.90;;;27.80;77.80;;;;;;4936386;29;20931;-85
2022/08/27 02:17:30;;;;;;;0.80;0.80;;;27.80;77.80;;;;;;4936308;29;20454;-84
2022/08/27 02:19:57;;;;;;;0.80;0.80;;;27.80;77.80;;;;;;4936431;29;20454;-84
2022/08/27 02:22:24;;;;;;;1.17;0.90;;;27.80;77.80;;;;;;4935947;29;20447;-84
2022/08/27 02:24:52;;;;;;;0.97;0.90;;;27.80;77.80;;;;;;4936018;29;20517;-84
2022/08/27 02:27:20;;;;;;;1.07;0.97;;;27.80;77.80;;;;;;4935655;29;20487;-85
2022/08/27 02:29:47;;;;;;;1.20;0.90;;;27.80;78.60;;;;;;4935979;29;20451;-88
2022/08/27 02:32:15;;;;;;;1.00;0.90;;;27.80;77.70;;;;;;4935875;29;20927;-84
2022/08/27 02:34:43;;;;;;;1.37;0.93;;;27.80;77.80;;;;;;4935793;29;20479;-84
2022/08/27 02:37:10;;;;;;;0.80;0.80;;;27.80;77.70;;;;;;4935959;29;20450;-84
2022/08/27 02:39:36;;;;;;;1.73;1.40;;;27.80;77.60;;;;;;4936051;29;20438;-88
2022/08/27 02:42:04;;;;;;;1.10;0.80;;;27.80;77.60;;;;;;4936745;29;20439;-87
2022/08/27 02:44:34;;;;;;;0.80;0.80;;;27.80;77.60;;;;;;4939616;29;20961;-85
2022/08/27 02:47:01;;;;;;;2.07;0.97;;;27.80;77.60;;;;;;4939455;29;20574;-85
2022/08/27 02:49:28;;;;;;;1.20;1.10;;;27.80;77.50;;;;;;4939764;29;20483;-88
2022/08/27 02:51:58;;;;;;;1.20;1.00;;;27.80;77.50;;;;;;4939858;29;20446;-85
2022/08/27 02:54:26;;;;;;;1.07;0.97;;;27.80;77.50;;;;;;4939449;29;20482;-87
2022/08/27 02:56:54;;;;;;;1.10;0.90;;;27.80;77.50;;;;;;4939450;29;21042;-85
2022/08/27 02:59:22;;;;;;;1.23;1.10;;;27.80;77.50;;;;;;4939371;29;20443;-85
2022/08/27 03:01:49;;;;;;;1.30;1.00;;;27.80;77.50;;;;;;4939467;29;20679;-85
2022/08/27 03:04:17;;;;;;;1.10;0.90;;;27.80;77.50;;;;;;4939253;29;20473;-85
2022/08/27 03:06:44;;;;;;;0.90;0.77;;;27.80;77.40;;;;;;4939409;29;21147;-84
2022/08/27 03:09:13;;;;;;;1.43;0.90;;;27.80;77.40;;;;;;4922241;29;20455;-84
2022/08/27 03:11:40;;;;;;;0.90;0.80;;;27.80;77.30;;;;;;4939213;29;20546;-84
2022/08/27 03:14:07;;;;;;;0.80;0.80;;;27.80;77.40;;;;;;4939069;29;20935;-84
2022/08/27 03:16:34;;;;;;;1.00;0.80;;;27.80;77.30;;;;;;4938864;29;20449;-84
2022/08/27 03:19:00;;;;;;;1.00;0.90;;;27.80;77.30;;;;;;4938713;29;20443;-86
2022/08/27 03:21:28;;;;;;;1.73;0.93;;;27.80;77.40;;;;;;4938700;29;20447;-88
2022/08/27 03:23:55;;;;;;;0.90;0.80;;;27.80;77.30;;;;;;4938794;29;20447;-88
2022/08/27 03:26:23;;;;;;;1.17;0.83;;;27.80;77.30;;;;;;4938835;29;20550;-85
2022/08/27 03:28:50;;;;;;;0.80;0.70;;;27.80;77.40;;;;;;4938870;29;20451;-83
2022/08/27 03:31:25;;;;;;;1.00;0.73;;;27.80;77.30;;;;;;4938744;29;20936;-85
2022/08/27 03:33:54;;;;;;;1.07;0.97;;;27.80;77.40;;;;;;4938961;29;20923;-84
2022/08/27 03:36:21;;;;;;;0.80;0.80;;;27.80;77.40;;;;;;4939015;29;20538;-84
2022/08/27 03:38:48;;;;;;;1.20;0.90;;;27.80;77.30;;;;;;4938633;29;20816;-84
2022/08/27 03:41:15;;;;;;;1.00;0.90;;;27.80;77.30;;;;;;4938532;29;20931;-87
2022/08/27 03:43:43;;;;;;;1.67;0.80;;;27.80;77.30;;;;;;4938704;29;20809;-84
2022/08/27 03:46:10;;;;;;;2.10;1.20;;;27.80;77.20;;;;;;4938568;29;20546;-84
2022/08/27 03:48:38;;;;;;;1.17;0.80;;;27.80;77.20;;;;;;4938587;29;20809;-84
2022/08/27 03:51:06;;;;;;;1.07;0.97;;;27.80;77.20;;;;;;4938746;29;20547;-88
2022/08/27 03:53:34;;;;;;;0.93;0.83;;;27.80;77.30;;;;;;4938026;29;20455;-84
2022/08/27 03:56:01;;;;;;;0.90;0.80;;;27.70;77.10;;;;;;4938493;29;20987;-86
2022/08/27 03:58:28;;;;;;;1.30;0.93;;;27.80;77.20;;;;;;4938436;29;20546;-88
2022/08/27 04:00:56;;;;;;;0.90;0.70;;;27.80;77.10;;;;;;4938352;29;20478;-87
2022/08/27 04:03:23;;;;;;;1.00;0.90;;;27.80;77.10;;;;;;4938071;29;20479;-84
2022/08/27 04:05:53;;;;;;;1.20;0.90;;;27.80;77.10;;;;;;4938325;29;20451;-85
2022/08/27 04:08:20;;;;;;;1.00;0.90;;;27.80;77.00;;;;;;4937907;29;20501;-84
2022/08/27 04:10:49;;;;;;;1.20;0.90;;;27.80;77.00;;;;;;4938218;29;20544;-87
2022/08/27 04:13:17;;;;;;;1.20;0.90;;;27.80;77.00;;;;;;4938047;29;20502;-87
2022/08/27 04:15:44;;;;;;;1.70;1.00;;;27.70;76.90;;;;;;4938033;29;20490;-84
2022/08/27 04:18:15;;;;;;;1.20;1.10;;;27.80;77.80;;;;;;4938099;29;20495;-84
2022/08/27 04:20:42;;;;;;;0.80;0.80;;;27.80;76.90;;;;;;4938031;29;20812;-87
2022/08/27 04:23:09;;;;;;;1.10;0.90;;;27.80;76.90;;;;;;4937891;29;20976;-84
2022/08/27 04:25:39;;;;;;;1.00;0.80;;;27.70;76.80;;;;;;4937883;29;20471;-84
2022/08/27 04:28:06;;;;;;;1.27;0.80;;;27.70;76.80;;;;;;4937739;29;20495;-84
2022/08/27 04:30:33;;;;;;;1.00;0.83;;;27.70;76.80;;;;;;4937786;29;20482;-83
2022/08/27 04:33:00;;;;;;;1.00;0.80;;;27.70;76.80;;;;;;4937676;29;20531;-84
2022/08/27 04:35:29;;;;;;;1.00;0.90;;;27.70;76.80;;;;;;4937366;29;20566;-87
2022/08/27 04:37:56;;;;;;;0.93;0.83;;;27.70;76.80;;;;;;4937433;29;20487;-87
2022/08/27 04:41:18;;;;;;;1.20;1.00;;;27.70;76.70;;;;;;4937475;29;20451;-84
2022/08/27 04:43:12;;;;;;;1.17;1.00;;;27.70;76.70;;;;;;4937152;29;20800;-83
2022/08/27 04:45:43;;;;;;;1.37;0.90;;;27.70;76.80;;;;;;4937602;29;20453;-82
2022/08/27 04:48:10;;;;;;;1.00;0.70;;;27.70;76.70;;;;;;4937375;29;20497;-83
2022/08/27 04:50:41;;;;;;;1.37;0.90;;;27.70;76.80;;;;;;4937379;29;20535;-87
2022/08/27 04:53:12;;;;;;;1.30;0.87;;;27.70;76.80;;;;;;4937360;29;20451;-87
2022/08/27 04:55:42;;;;;;;2.00;1.00;;;27.70;76.70;;;;;;4937236;29;20498;-83
2022/08/27 04:58:10;;;;;;;1.00;0.90;;;27.70;76.70;;;;;;4937442;29;20440;-85
2022/08/27 05:00:41;;;;;;;1.30;0.90;;;27.70;76.70;;;;;;4937244;29;20795;-83
2022/08/27 05:03:08;;;;;;;1.53;1.07;;;27.70;76.60;;;;;;4937164;29;20554;-87
2022/08/27 05:05:35;;;;;;;1.70;1.10;;;27.70;76.70;;;;;;4936495;29;20538;-84
2022/08/27 05:08:05;;;;;;;1.40;1.20;;;27.70;76.80;;;;;;4936900;29;20577;-87
2022/08/27 05:10:38;;;;;;;1.20;1.10;;;27.70;76.60;;;;;;4936873;29;20451;-84
2022/08/27 05:13:05;;;;;;;1.00;0.90;;;27.60;76.60;;;;;;4936807;29;20530;-84
2022/08/27 05:15:32;;;;;;;1.57;0.90;;;27.60;76.60;;;;;;4937090;29;20482;-83
2022/08/27 05:17:59;;;;;;;2.23;0.93;;;27.70;76.60;;;;;;4936373;29;20560;-83
2022/08/27 05:20:26;;;;;;;1.40;1.00;;;27.70;76.60;;;;;;4936940;29;20470;-84
2022/08/27 05:22:53;;;;;;;1.43;1.00;;;27.70;76.70;;;;;;4936581;29;20530;-84
2022/08/27 05:25:22;;;;;;;1.20;1.00;;;27.70;76.60;;;;;;4936476;29;20986;-84
2022/08/27 05:27:49;;;;;;;1.00;0.90;;;27.70;76.60;;;;;;4936463;29;20493;-85
2022/08/27 05:30:16;;;;;;;1.30;0.80;;;27.70;76.60;;;;;;4936717;29;20443;-85
2022/08/27 05:32:43;;;;;;;0.90;0.80;;;27.70;76.60;;;;;;4936463;29;20486;-84
2022/08/27 05:35:10;;;;;;;0.93;0.80;;;27.70;76.60;;;;;;4938103;29;20490;-84
2022/08/27 05:37:37;;;;;;;1.37;1.10;;;27.70;76.50;;;;;;4936464;29;20474;-84
2022/08/27 05:40:06;;;;;;;1.17;0.90;;;27.70;76.50;;;;;;4936551;29;20530;-84
2022/08/27 05:42:34;;;;;;;1.17;1.00;;;27.70;76.40;;;;;;4936413;29;20531;-84
2022/08/27 05:45:01;;;;;;;1.00;0.90;;;27.70;76.50;;;;;;4936484;29;20443;-86
2022/08/27 05:47:28;;;;;;;1.23;1.13;;;27.70;76.40;;;;;;4936164;29;20590;-83
2022/08/27 05:49:55;;;;;;;1.60;1.07;;;27.70;76.40;;;;;;4936441;29;20446;-85
2022/08/27 05:52:22;;;;;;;1.17;1.07;;;27.70;76.50;;;;;;4936520;29;20517;-84
2022/08/27 05:54:49;;;;;;;1.20;1.00;;;27.70;76.50;;;;;;4936442;29;20923;-84
2022/08/27 05:57:16;;;;;;;1.70;1.00;;;27.60;76.30;;;;;;4936316;29;20537;-83
2022/08/27 06:02:28;;;;;;;1.83;0.90;;;27.70;76.30;;;;;;4936326;29;20513;-86
2022/08/27 06:04:55;;;;;;;2.07;0.80;;;27.70;76.30;;;;;;4936056;29;20956;-84
2022/08/27 06:07:22;;;;;;;2.03;0.90;;;27.70;76.30;;;;;;4936274;29;20518;-84
2022/08/27 06:09:49;;;;;;;2.93;1.13;;;27.70;76.30;;;;;;4936318;29;20480;-84
2022/08/27 06:12:16;;;;;;;1.73;0.90;;;27.70;76.30;;;;;;4936190;29;20471;-84
2022/08/27 06:14:44;;;;;;;0.90;0.70;;;27.70;76.30;;;;;;4936197;29;20527;-84
2022/08/27 06:17:11;;;;;;;1.10;1.00;;;27.70;76.20;;;;;;4938554;29;20545;-83
2022/08/27 06:19:38;;;;;;;1.73;1.00;;;27.70;76.30;;;;;;4939913;29;20482;-84
2022/08/27 06:22:06;;;;;;;1.43;0.90;;;27.60;76.20;;;;;;4940016;29;20506;-84
2022/08/27 06:24:33;;;;;;;1.00;0.90;;;27.70;76.20;;;;;;4939995;29;20461;-84
2022/08/27 06:27:00;;;;;;;1.03;0.93;;;27.70;76.20;;;;;;4939800;29;20498;-84
2022/08/27 06:29:27;;;;;;;1.20;1.03;;;27.60;76.10;;;;;;4939849;29;20533;-83
2022/08/27 06:31:55;;;;;;;1.07;0.97;;;27.70;76.20;;;;;;4939727;29;20458;-83
2022/08/27 06:34:22;;;;;;;1.20;1.00;;;27.70;76.10;;;;;;4939510;29;20453;-84
2022/08/27 06:36:49;;;;;;;1.97;1.20;;;27.70;76.10;;;;;;4939762;29;20494;-84
2022/08/27 06:39:16;;;;;;;1.60;1.33;;;27.60;75.90;;;;;;4939222;29;20453;-85
2022/08/27 06:41:43;;;;;;;2.57;1.03;;;27.50;75.70;;;;;;4939489;29;20493;-86
2022/08/27 06:44:11;;;;;;;3.33;1.30;;;27.50;75.60;;;;;;4939946;29;20503;-86
2022/08/27 06:46:38;;;;;;;1.93;1.63;;;27.40;75.60;;;;;;4939686;29;20451;-85
2022/08/27 09:08:47;;;;;;;1.83;1.60;;;27.00;75.00;;;;;;4952723;28;21032;-85
2022/08/27 09:11:26;;;;;;;4.07;1.17;;;27.00;76.10;;;;;;4956080;29;20450;-84
2022/08/27 09:13:58;;;;;;;3.27;1.33;;;27.00;75.20;;;;;;4956003;29;20767;-86
2022/08/27 09:16:25;;;;;;;2.70;1.13;;;27.00;74.80;;;;;;4955912;29;20461;-87
2022/08/27 09:18:52;;;;;;;2.77;1.50;;;27.10;75.00;;;;;;4956278;29;20545;-88
2022/08/27 09:21:30;;;;;;;2.63;1.80;;;27.10;75.00;;;;;;4956339;29;20505;-87
2022/08/27 09:24:07;;;;;;;5.60;2.17;;;27.10;74.90;;;;;;4956663;29;20450;-87
2022/08/27 09:26:37;;;;;;;4.10;1.87;;;27.10;74.90;;;;;;4956551;29;20485;-85
2022/08/27 09:29:15;;;;;;;3.20;1.37;;;27.10;74.90;;;;;;4955661;29;20544;-86
2022/08/27 09:31:44;;;;;;;8.23;2.20;;;27.10;74.70;;;;;;4955933;29;20864;-86
2022/08/27 09:34:11;;;;;;;4.50;1.50;;;27.10;74.50;;;;;;4955874;29;20532;-85
2022/08/27 09:36:58;;;;;;;5.30;1.80;;;27.10;74.60;;;;;;4955956;29;20470;-87
2022/08/27 09:39:35;;;;;;;2.57;1.60;;;27.10;73.80;;;;;;4955940;29;20455;-85
2022/08/27 09:42:04;;;;;;;1.90;1.30;;;27.10;73.70;;;;;;4955956;29;20819;-86
2022/08/27 09:44:32;;;;;;;5.00;1.70;;;27.10;74.00;;;;;;4955637;29;20449;-85
2022/08/27 09:47:02;;;;;;;3.20;1.43;;;27.10;73.70;;;;;;4955619;29;20443;-85
2022/08/27 09:49:33;;;;;;;4.93;1.60;;;27.10;73.40;;;;;;4955734;29;20589;-85
2022/08/27 09:52:00;;;;;;;3.57;2.00;;;27.10;73.90;;;;;;4955666;28;20501;-85
2022/08/27 09:54:37;;;;;;;4.20;1.40;;;27.10;74.10;;;;;;4955559;29;20529;-85
2022/08/27 09:57:06;;;;;;;3.43;1.50;;;27.10;74.20;;;;;;4955549;29;20529;-85
2022/08/27 09:59:35;;;;;;;1.23;1.13;;;27.10;74.20;;;;;;4955308;29;20446;-85
2022/08/27 10:02:06;;;;;;;3.50;1.43;;;27.10;74.30;;;;;;4956318;29;20474;-86
2022/08/27 10:04:37;;;;;;;1.20;1.10;;;27.10;73.30;;;;;;4955815;29;20481;-85
2022/08/27 10:07:18;;;;;;;1.90;1.70;;;27.10;74.10;;;;;;4955268;29;20545;-85
2022/08/27 10:09:52;;;;;;;2.53;1.60;;;27.10;73.70;;;;;;4946679;29;20497;-86
2022/08/27 10:12:27;;;;;;;4.17;1.83;;;27.10;73.60;;;;;;4919172;29;20447;-85
2022/08/27 10:14:58;;;;;;;1.20;1.10;;;27.10;73.60;;;;;;4936069;29;20446;-84
2022/08/27 10:17:37;;;;;;;2.17;1.17;;;27.00;73.00;;;;;;4935807;29;20490;-86
2022/08/27 10:20:14;;;;;;;1.53;1.30;;;27.10;73.50;;;;;;4936002;29;20853;-87
2022/08/27 10:22:51;;;;;;;2.17;1.53;;;27.10;73.40;;;;;;4935970;29;21018;-87
2022/08/27 10:25:29;;;;;;;1.23;1.13;;;27.20;73.40;;;;;;4936025;29;20525;-83
2022/08/27 10:28:10;;;;;;;1.53;1.30;;;27.30;73.40;;;;;;4935695;29;20443;-85
2022/08/27 10:30:49;;;;;;;1.70;1.10;;;27.40;73.50;;;;;;4930154;29;20447;-86
2022/08/27 10:33:25;;;;;;;3.00;1.90;;;27.40;73.50;;;;;;4925711;29;20525;-84
2022/08/27 10:36:01;;;;;;;1.57;1.47;;;27.40;73.50;;;;;;4928176;29;20453;-84
2022/08/27 10:38:37;;;;;;;1.30;1.20;;;27.50;73.70;;;;;;4921936;29;20574;-85
2022/08/27 10:41:14;;;;;;;2.90;1.40;;;27.50;73.60;;;;;;4935985;29;20479;-84
2022/08/27 10:44:04;;;;;;;2.70;1.00;;;27.50;74.40;;;;;;4935689;29;20541;-85
2022/08/27 10:46:47;;;;;;;1.57;1.40;;;27.50;73.60;;;;;;4935696;29;20618;-84
2022/08/27 10:49:22;;;;;;;2.20;1.10;;;27.50;73.60;;;;;;4918059;29;20625;-84
2022/08/27 10:51:57;;;;;;;1.10;1.00;;;27.50;73.50;;;;;;4916842;29;20463;-85
2022/08/27 10:54:32;;;;;;;1.70;1.03;;;27.50;73.50;;;;;;4916706;29;20475;-84
2022/08/27 10:57:05;;;;;;;1.20;1.10;;;27.50;73.40;;;;;;4916770;29;20542;-84
2022/08/27 10:59:41;;;;;;;1.40;1.30;;;27.50;73.30;;;;;;4916781;29;20458;-86
2022/08/27 11:02:19;;;;;;;3.77;1.27;;;27.50;74.20;;;;;;4916688;29;20538;-84
2022/08/27 11:04:51;;;;;;;1.10;1.00;;;27.50;73.20;;;;;;4919120;29;20498;-84
2022/08/27 11:07:24;;;;;;;1.27;1.00;;;27.50;73.30;;;;;;4920145;29;20952;-85
2022/08/27 11:09:56;;;;;;;2.00;1.00;;;27.50;73.20;;;;;;4928927;29;20927;-85
2022/08/27 11:12:29;;;;;;;1.77;1.20;;;27.50;73.20;;;;;;4938805;29;20498;-84
2022/08/27 11:15:00;;;;;;;1.93;1.20;;;27.50;73.20;;;;;;4938677;29;20446;-84
2022/08/27 11:17:33;;;;;;;1.70;1.20;;;27.50;72.90;;;;;;4939055;29;20554;-84
2022/08/27 11:20:08;;;;;;;1.37;1.10;;;27.50;73.00;;;;;;4939034;29;20454;-84
2022/08/27 11:22:40;;;;;;;1.13;1.00;;;27.40;73.10;;;;;;4938786;29;20447;-84
2022/08/27 11:25:19;;;;;;;2.97;1.17;;;27.40;73.00;;;;;;4938741;29;20489;-84
2022/08/27 11:27:50;;;;;;;1.93;1.50;;;27.50;72.80;;;;;;4938692;29;21053;-85
2022/08/27 11:30:23;;;;;;;1.60;1.00;;;27.50;73.10;;;;;;4938600;29;20581;-85
2022/08/27 11:32:58;;;;;;;1.50;1.00;;;27.50;73.10;;;;;;4938762;29;21018;-85
2022/08/27 11:35:35;;;;;;;1.40;1.20;;;27.50;73.30;;;;;;4938695;29;20442;-84
2022/08/27 11:38:26;;;;;;;2.97;1.40;;;27.40;73.20;;;;;;4938709;29;20454;-85
2022/08/27 11:41:35;;;;;;;3.03;1.27;;;27.40;72.80;;;;;;4938693;29;20447;-84
2022/08/27 11:44:03;;;;;;;1.67;1.00;;;27.40;73.20;;;;;;4861216;29;20579;-86
2022/08/27 11:46:42;;;;;;;1.80;1.20;;;27.40;72.80;;;;;;4920274;29;20546;-84
2022/08/27 11:49:09;;;;;;;1.77;1.00;;;27.40;72.50;;;;;;4938428;29;20624;-84
2022/08/27 11:51:39;;;;;;;1.33;1.23;;;27.40;72.10;;;;;;4938256;29;21018;-85
2022/08/27 11:54:09;;;;;;;2.63;1.27;;;27.40;72.10;;;;;;4938318;29;20555;-84
2022/08/27 11:56:41;;;;;;;1.87;1.10;;;27.40;72.20;;;;;;4938109;29;20886;-84
2022/08/27 11:59:22;;;;;;;1.80;1.23;;;27.40;73.30;;;;;;4937632;29;20435;-85
2022/08/27 12:01:51;;;;;;;1.63;1.10;;;27.40;72.30;;;;;;4919581;29;20487;-83
2022/08/27 12:04:32;;;;;;;1.37;1.10;;;27.40;72.40;;;;;;4921608;29;20443;-83
2022/08/27 12:07:05;;;;;;;3.10;1.40;;;27.40;72.60;;;;;;4919759;29;20476;-83
2022/08/27 12:09:53;;;;;;;2.80;1.47;;;27.30;72.40;;;;;;4926645;29;20526;-83
2022/08/27 12:12:25;;;;;;;1.63;1.10;;;27.30;72.20;;;;;;4937902;29;20872;-84
2022/08/27 12:15:02;;;;;;;1.10;1.00;;;27.20;72.20;;;;;;4937641;29;20458;-84
2022/08/27 12:17:38;;;;;;;1.90;1.10;;;27.20;72.00;;;;;;4937824;29;20498;-84
2022/08/27 12:20:14;;;;;;;1.20;1.10;;;27.20;72.00;;;;;;4937670;29;20482;-84
2022/08/27 12:25:34;;;;;;;1.57;1.10;;;27.30;72.00;;;;;;4937839;29;20597;-84
2022/08/27 12:28:05;;;;;;;1.40;1.10;;;27.20;71.90;;;;;;4937803;29;20530;-84
2022/08/27 12:30:35;;;;;;;1.90;1.10;;;27.20;71.90;;;;;;4936859;29;20495;-84
2022/08/27 12:33:12;;;;;;;2.73;1.20;;;27.20;71.90;;;;;;4937555;29;20443;-86
2022/08/27 12:35:44;;;;;;;1.47;1.00;;;27.30;72.00;;;;;;4937681;29;20534;-84
2022/08/27 12:38:15;;;;;;;2.07;1.50;;;27.30;71.80;;;;;;4937594;29;20486;-84
2022/08/27 12:40:48;;;;;;;1.33;1.20;;;27.30;72.00;;;;;;4937639;29;20636;-84
2022/08/27 12:43:19;;;;;;;2.13;1.37;;;27.30;71.90;;;;;;4939157;29;20447;-86
2022/08/27 12:45:50;;;;;;;3.00;1.50;;;27.30;71.90;;;;;;4937594;29;20530;-84
2022/08/27 12:48:20;;;;;;;1.30;1.07;;;27.40;72.20;;;;;;4937260;29;20451;-85
2022/08/27 12:50:52;;;;;;;1.80;1.50;;;27.40;72.10;;;;;;4937271;29;20879;-84
2022/08/27 12:53:34;;;;;;;1.10;1.00;;;27.40;72.10;;;;;;4937452;29;20546;-84
2022/08/27 12:56:24;;;;;;;1.93;1.13;;;27.30;72.20;;;;;;4937192;29;20495;-84
2022/08/27 12:58:59;;;;;;;2.60;1.33;;;27.30;72.10;;;;;;4937237;29;20475;-85
2022/08/27 13:01:48;;;;;;;1.67;1.20;;;27.30;71.90;;;;;;4937237;29;20442;-84
2022/08/27 13:04:21;;;;;;;1.30;1.20;;;27.30;71.90;;;;;;4937114;29;20451;-83
2022/08/27 13:06:49;;;;;;;1.27;1.17;;;27.30;71.80;;;;;;4936679;29;20962;-84
2022/08/27 13:09:16;;;;;;;2.50;1.30;;;27.20;71.60;;;;;;4936367;29;20494;-84
2022/08/27 13:11:47;;;;;;;2.50;1.20;;;27.20;71.60;;;;;;4936664;29;20443;-84
2022/08/27 13:14:18;;;;;;;2.50;1.73;;;27.30;71.70;;;;;;4936606;29;20458;-84
2022/08/27 13:16:50;;;;;;;1.60;1.10;;;27.30;71.70;;;;;;4934947;29;20934;-84
2022/08/27 13:19:23;;;;;;;1.40;1.13;;;27.30;71.70;;;;;;4934722;29;20506;-84
2022/08/27 13:21:51;;;;;;;1.20;1.10;;;27.30;71.70;;;;;;4934401;29;20439;-83
2022/08/27 13:24:20;;;;;;;2.03;1.00;;;27.30;71.60;;;;;;4934389;29;20553;-83
2022/08/27 13:26:52;;;;;;;1.10;1.00;;;27.40;71.80;;;;;;4934338;29;20530;-84
2022/08/27 13:29:20;;;;;;;1.67;1.37;;;27.40;71.70;;;;;;4935427;29;20554;-88
2022/08/27 13:31:49;;;;;;;1.67;1.10;;;27.40;71.70;;;;;;4935856;29;20451;-84
2022/08/27 13:34:20;;;;;;;1.97;1.10;;;27.40;71.70;;;;;;4935926;29;20458;-84
2022/08/27 13:36:56;;;;;;;1.50;1.10;;;27.40;71.70;;;;;;4935678;29;20877;-83
2022/08/27 13:39:24;;;;;;;1.30;1.20;;;27.40;71.60;;;;;;4936156;29;20933;-83
2022/08/27 13:41:52;;;;;;;1.40;1.00;;;27.40;71.60;;;;;;4936541;29;20525;-83
2022/08/27 13:44:22;;;;;;;2.10;1.23;;;27.40;71.60;;;;;;4936485;29;20478;-88
2022/08/27 13:46:53;;;;;;;1.30;1.10;;;27.40;71.60;;;;;;4936329;29;20451;-83
2022/08/27 13:49:22;;;;;;;1.43;1.13;;;27.50;71.70;;;;;;4936516;29;20491;-84
2022/08/27 13:51:57;;;;;;;2.70;1.13;;;27.50;71.70;;;;;;4936617;29;20870;-89
2022/08/27 13:54:23;;;;;;;1.27;1.00;;;27.50;71.80;;;;;;4936418;29;20553;-83
2022/08/27 13:57:02;;;;;;;1.77;1.17;;;27.50;71.70;;;;;;4936391;29;20497;-84
2022/08/27 13:59:30;;;;;;;2.67;1.30;;;27.50;71.70;;;;;;4936947;29;20789;-83
2022/08/27 14:02:01;;;;;;;3.03;1.20;;;27.50;71.80;;;;;;4936123;29;20530;-84
2022/08/27 14:04:37;;;;;;;1.23;1.07;;;27.50;71.80;;;;;;4935476;29;20861;-89
2022/08/27 14:07:11;;;;;;;0.93;0.87;;;27.50;71.90;;;;;;4935944;29;20535;-89
2022/08/27 14:09:44;;;;;;;1.20;1.10;;;27.50;71.80;;;;;;4935956;29;20905;-89
2022/08/27 14:12:17;;;;;;;1.57;0.93;;;27.50;71.80;;;;;;4936270;29;20447;-87
2022/08/27 14:14:53;;;;;;;6.83;1.80;;;27.50;71.80;;;;;;4935928;29;20489;-83
2022/08/27 14:17:26;;;;;;;1.40;1.27;;;27.40;70.40;;;;;;4932426;29;20446;-83
2022/08/27 14:19:59;;;;;;;2.50;1.20;;;27.40;70.20;;;;;;4936096;29;20439;-83
2022/08/27 14:22:25;;;;;;;1.53;1.10;;;27.40;71.00;;;;;;4921574;29;20449;-83
2022/08/27 14:24:52;;;;;;;1.70;1.40;;;27.40;70.90;;;;;;4916409;29;20893;-83
2022/08/27 14:27:19;;;;;;;2.80;1.33;;;27.40;69.60;;;;;;4923633;29;20447;-83
2022/08/27 14:29:47;;;;;;;1.60;1.50;;;27.40;69.60;;;;;;4928431;29;20471;-83
2022/08/27 14:32:15;;;;;;;1.20;1.10;;;27.40;68.70;;;;;;4931581;29;20473;-83
2022/08/27 14:34:47;;;;;;;2.60;1.20;;;27.40;68.80;;;;;;4921303;29;20448;-83
2022/08/27 14:37:14;;;;;;;1.77;1.23;;;27.40;69.80;;;;;;4931039;29;20439;-83
2022/08/27 14:43:03;;;;;;;2.07;1.50;;;27.40;68.80;;;;;;4920563;29;20451;-84
2022/08/27 14:45:30;;;;;;;4.40;1.20;;;27.30;69.10;;;;;;4920921;29;20454;-93
2022/08/27 14:47:57;;;;;;;2.13;1.33;;;27.40;69.20;;;;;;4920588;29;20444;-89
2022/08/27 14:50:26;;;;;;;2.33;1.40;;;27.40;69.40;;;;;;4920147;29;20514;-82
2022/08/27 14:52:53;;;;;;;2.47;1.43;;;27.40;69.40;;;;;;4920413;29;20452;-83
2022/08/27 14:55:20;;;;;;;2.50;1.83;;;27.40;69.20;;;;;;4921409;29;20507;-83
2022/08/27 14:57:47;;;;;;;2.63;1.57;;;27.30;69.10;;;;;;4920428;29;20448;-83
2022/08/27 15:00:14;;;;;;;2.07;1.00;;;27.30;69.30;;;;;;4920354;29;20447;-83
2022/08/27 15:02:46;;;;;;;1.87;1.60;;;27.30;69.80;;;;;;4920399;29;20451;-83
2022/08/27 15:05:14;;;;;;;1.17;1.07;;;27.40;70.60;;;;;;4920114;29;20474;-83
2022/08/27 15:07:42;;;;;;;4.87;1.30;;;27.30;70.90;;;;;;4920273;29;20539;-83
2022/08/27 15:10:09;;;;;;;1.57;1.30;;;27.40;70.80;;;;;;4919986;29;20495;-83
2022/08/27 15:12:38;;;;;;;4.03;1.60;;;27.40;69.90;;;;;;4920133;29;20450;-84
2022/08/27 15:15:08;;;;;;;5.60;1.93;;;27.40;69.80;;;;;;4920246;29;20525;-84
2022/08/27 15:17:35;;;;;;;5.17;1.27;;;27.40;69.90;;;;;;4919984;29;20534;-84
2022/08/27 15:20:02;;;;;;;2.97;1.47;;;27.40;70.30;;;;;;4920030;29;21043;-83
2022/08/27 15:22:33;;;;;;;3.00;1.13;;;27.40;70.50;;;;;;4919589;29;20458;-83
2022/08/27 15:25:03;;;;;;;1.17;1.07;;;27.50;70.90;;;;;;4920074;29;20789;-89
2022/08/27 15:27:34;;;;;;;2.30;1.30;;;27.50;70.90;;;;;;4919770;29;20874;-89
2022/08/27 15:30:01;;;;;;;2.80;1.37;;;27.50;70.90;;;;;;4919415;29;20497;-87
2022/08/27 15:32:30;;;;;;;1.70;1.27;;;27.50;71.10;;;;;;4937863;29;20443;-83